Darstellungsparameter: Aktuell verwendete Einstellungen:
Skalierung der Graphiken ... ?
xyx+y,   Skalierungsfaktor:      Skalierung: Modus: x, Faktor: 1
Darstellungszeitraum ... ?
Vom - - bis: - -   Zeitraum: 06.06.2009 - 06.06.2009
Min/Max/Avg-Anzeige ... ?
Zeige MMA aktuell
Zeige MMA Monat
Zeige MMA alles
Zeige --A aktuell
Zeige --A Monat
Zeige --A alles
Keine MMA-Anzeige
MMA:
Keine MMA-Graphiken
MMA-Basis: 06.06.2009 - 06.06.2009
Quicknavigation für Darstellung... ?
Tage:      1T, 2T, 3T, 5T -1T -2T -3T -5T +1T +2T +3T +5T
Wochen: 1W, 2W, 3W -1W -2W -3W +1W +2W +3W
Monate: 1M, 3M, 6M -1M -3M -6M +1M +3M +6M
Jahre:    1J, 3J, 5J, 10J -1J -3J -5J -10J +1J +3J +5J +10J
Nutze für die Darstellung ... ?
Originaldaten oder Mittelwerte auf ...
Stundenbasis Tagesbasis Wochenbasis
Monatsbasis Jahresbasis      Datenbasis: Original-Daten
Darstellen als:
Statistik (Auto) Statistik J:M      Darstellung:
Zur Graphik,    zurück zur Übersicht aller Sensoren.
 
Tabellarische Datenbersicht: ?
 
Sensor: Nr:Datum:Temp:Abs-Feuchte:Windchill:Wind:
Aussen-T/F 1 06-06-2009 00:07:20 9.8 C 5.29 g/m*3 9.8 C 0 km/h
2 06-06-2009 00:19:20 9.7 C 5.35 g/m*3 9.7 C 0 km/h
3 06-06-2009 00:31:20 9.5 C 5.37 g/m*3 9.5 C 0 km/h
4 06-06-2009 00:43:20 9.1 C 5.32 g/m*3 9.1 C 0 km/h
5 06-06-2009 00:55:20 8.9 C 5.43 g/m*3 8.9 C 0 km/h
6 06-06-2009 01:07:20 8.8 C 5.4 g/m*3 8.8 C 0 km/h
7 06-06-2009 01:19:20 8.6 C 5.33 g/m*3 8.6 C 0 km/h
8 06-06-2009 01:31:20 8.6 C 5.41 g/m*3 8.6 C 0 km/h
9 06-06-2009 01:43:20 8.5 C 5.55 g/m*3 8.5 C 0 km/h
10 06-06-2009 01:55:20 8.3 C 5.48 g/m*3 8.3 C 0 km/h
11 06-06-2009 02:07:20 8.2 C 5.53 g/m*3 8.2 C 0 km/h
12 06-06-2009 02:19:20 8.1 C 5.49 g/m*3 8.1 C 0 km/h
13 06-06-2009 02:31:20 8.1 C 5.57 g/m*3 8.1 C 0 km/h
14 06-06-2009 02:43:20 8.1 C 5.66 g/m*3 8.1 C 0 km/h
15 06-06-2009 02:55:20 8.1 C 5.66 g/m*3 8.1 C 0 km/h
16 06-06-2009 03:07:20 8 C 5.79 g/m*3 8 C 0 km/h
17 06-06-2009 03:19:20 7.8 C 5.79 g/m*3 7.8 C 0 km/h
18 06-06-2009 03:31:20 7.6 C 5.8 g/m*3 7.6 C 0 km/h
19 06-06-2009 03:43:20 7.5 C 5.84 g/m*3 7.5 C 0 km/h
20 06-06-2009 03:55:20 7.4 C 5.81 g/m*3 7.4 C 0 km/h
21 06-06-2009 04:07:21 7.4 C 5.81 g/m*3 7.4 C 0 km/h
22 06-06-2009 04:19:21 7.4 C 5.81 g/m*3 7.4 C 0 km/h
23 06-06-2009 04:31:21 7.3 C 5.85 g/m*3 7.3 C 0 km/h
24 06-06-2009 04:43:21 7.1 C 5.77 g/m*3 7.1 C 0 km/h
25 06-06-2009 04:55:21 7.2 C 5.89 g/m*3 7.2 C 0 km/h
Sensor: Nr:Datum:Temp:Abs-Feuchte:Windchill:Wind:
Aussen-T/F 26 06-06-2009 05:07:21 7.4 C 5.96 g/m*3 7.4 C 0 km/h
27 06-06-2009 05:19:21 7.6 C 6.04 g/m*3 7.6 C 0 km/h
28 06-06-2009 05:31:21 7.8 C 6.04 g/m*3 7.8 C 0 km/h
29 06-06-2009 05:43:21 8 C 6.04 g/m*3 8 C 0 km/h
30 06-06-2009 05:55:21 8.1 C 6.07 g/m*3 8.1 C 0 km/h
31 06-06-2009 06:07:21 8.2 C 6.11 g/m*3 8.2 C 0 km/h
32 06-06-2009 06:19:21 8.4 C 6.19 g/m*3 8.4 C 0 km/h
33 06-06-2009 06:31:21 8.7 C 6.23 g/m*3 8.7 C 0 km/h
34 06-06-2009 06:43:21 8.7 C 6.05 g/m*3 8.7 C 0 km/h
35 06-06-2009 06:55:21 8.9 C 6.13 g/m*3 8.9 C 0 km/h
36 06-06-2009 07:07:21 8.9 C 6.13 g/m*3 8.9 C 0 km/h
37 06-06-2009 07:19:21 8.9 C 6.13 g/m*3 8.9 C 0 km/h
38 06-06-2009 07:31:21 8.6 C 6.27 g/m*3 8.6 C 0 km/h
39 06-06-2009 07:43:21 8.6 C 6.44 g/m*3 8.6 C 0 km/h
40 06-06-2009 07:55:21 8.6 C 6.62 g/m*3 8.6 C 0 km/h
41 06-06-2009 08:07:22 8.6 C 6.79 g/m*3 8.6 C 0 km/h
42 06-06-2009 08:19:22 8.6 C 6.96 g/m*3 8.6 C 0 km/h
43 06-06-2009 08:31:22 8.3 C 7.08 g/m*3 8.3 C 0 km/h
44 06-06-2009 08:43:22 8.3 C 7.33 g/m*3 8.3 C 0 km/h
45 06-06-2009 08:55:22 8.2 C 7.37 g/m*3 8.2 C 0 km/h
46 06-06-2009 09:07:19 8.5 C 7.6 g/m*3 8.5 C 0 km/h
47 06-06-2009 09:19:19 8.4 C 7.63 g/m*3 8.4 C 0 km/h
48 06-06-2009 09:31:20 8.7 C 7.78 g/m*3 8.7 C 0 km/h
49 06-06-2009 09:43:20 8.7 C 7.87 g/m*3 8.7 C 0 km/h
50 06-06-2009 09:55:19 8.9 C 7.97 g/m*3 8.9 C 0 km/h
Sensor: Nr:Datum:Temp:Abs-Feuchte:Windchill:Wind:
Aussen-T/F 51 06-06-2009 10:07:19 9.1 C 7.99 g/m*3 9.1 C 0 km/h
52 06-06-2009 10:19:19 9.1 C 7.99 g/m*3 9.1 C 0 km/h
53 06-06-2009 10:31:19 8.9 C 7.97 g/m*3 8.9 C 0 km/h
54 06-06-2009 10:43:19 9 C 7.93 g/m*3 9 C 0 km/h
55 06-06-2009 10:55:18 9 C 7.93 g/m*3 9 C 0 km/h
56 06-06-2009 11:07:19 9 C 7.93 g/m*3 9 C 0 km/h
57 06-06-2009 11:19:18 9 C 7.93 g/m*3 9 C 0 km/h
58 06-06-2009 11:31:18 9.2 C 8.13 g/m*3 9.2 C 0 km/h
59 06-06-2009 11:43:18 9.2 C 8.13 g/m*3 9.2 C 0 km/h
60 06-06-2009 11:55:18 9 C 8.02 g/m*3 9 C 0 km/h
61 06-06-2009 12:07:17 9.2 C 8.13 g/m*3 9.2 C 0 km/h
62 06-06-2009 12:19:18 9.4 C 8.32 g/m*3 9.4 C 0 km/h
63 06-06-2009 12:31:18 9.3 C 8.27 g/m*3 9.3 C 0 km/h
64 06-06-2009 12:43:18 9.3 C 8.27 g/m*3 9.3 C 0 km/h
65 06-06-2009 12:55:17 9.5 C 8.37 g/m*3 9.5 C 0 km/h
66 06-06-2009 13:07:18 9.6 C 8.43 g/m*3 9.6 C 0 km/h
67 06-06-2009 13:19:17 9.7 C 8.48 g/m*3 9.7 C 0 km/h
68 06-06-2009 13:31:17 9.7 C 8.57 g/m*3 9.7 C 0 km/h
69 06-06-2009 13:43:17 9.7 C 8.57 g/m*3 9.7 C 0 km/h
70 06-06-2009 13:55:17 9.6 C 8.52 g/m*3 9.6 C 0 km/h
71 06-06-2009 14:07:17 9.8 C 8.63 g/m*3 9.8 C 0 km/h
72 06-06-2009 14:19:16 9.8 C 8.63 g/m*3 9.8 C 0 km/h
73 06-06-2009 14:31:16 9.8 C 8.63 g/m*3 9.8 C 0 km/h
74 06-06-2009 14:43:16 9.6 C 8.43 g/m*3 9.6 C 0 km/h
75 06-06-2009 14:55:16 9.5 C 8.37 g/m*3 9.5 C 0 km/h
Sensor: Nr:Datum:Temp:Abs-Feuchte:Windchill:Wind:
Aussen-T/F 76 06-06-2009 15:07:16 9.5 C 8.37 g/m*3 9.5 C 0 km/h
77 06-06-2009 15:19:15 9.4 C 8.32 g/m*3 9.4 C 0 km/h
78 06-06-2009 15:31:16 9.5 C 8.37 g/m*3 9.5 C 0 km/h
79 06-06-2009 15:43:16 9.7 C 8.57 g/m*3 9.7 C 0 km/h
80 06-06-2009 15:55:15 9.8 C 8.63 g/m*3 9.8 C 0 km/h
81 06-06-2009 16:07:15 10.1 C 8.7 g/m*3 10.1 C 0 km/h
82 06-06-2009 16:19:16 10.1 C 8.7 g/m*3 10.1 C 0 km/h
83 06-06-2009 16:31:15 9.9 C 8.68 g/m*3 9.9 C 0 km/h
84 06-06-2009 16:43:15 10 C 8.64 g/m*3 10 C 0 km/h
85 06-06-2009 16:55:15 9.9 C 8.68 g/m*3 9.9 C 0 km/h
86 06-06-2009 17:07:15 9.9 C 8.59 g/m*3 9.9 C 0 km/h
87 06-06-2009 17:19:15 9.9 C 8.59 g/m*3 9.9 C 0 km/h
88 06-06-2009 17:31:14 10.1 C 8.61 g/m*3 10.1 C 0 km/h
89 06-06-2009 17:43:14 10.3 C 8.71 g/m*3 10.3 C 0 km/h
90 06-06-2009 17:55:15 10.4 C 8.67 g/m*3 10.4 C 0 km/h
91 06-06-2009 18:07:14 10.5 C 8.73 g/m*3 10.5 C 0 km/h
92 06-06-2009 18:19:14 10.9 C 8.95 g/m*3 10.9 C 0 km/h
93 06-06-2009 18:31:02 10.7 C 8.64 g/m*3 10.7 C 0 km/h
94 06-06-2009 18:43:02 10.8 C 8.7 g/m*3 10.8 C 0 km/h
95 06-06-2009 18:55:01 10.7 C 8.45 g/m*3 10.7 C 0 km/h
96 06-06-2009 19:07:02 10.8 C 8.5 g/m*3 10.8 C 0 km/h
97 06-06-2009 19:19:01 10.9 C 8.45 g/m*3 10.9 C 0 km/h
98 06-06-2009 19:31:01 11.1 C 8.56 g/m*3 11.1 C 0 km/h
99 06-06-2009 19:43:01 11 C 8.51 g/m*3 11 C 0 km/h
100 06-06-2009 19:55:01 10.9 C 8.65 g/m*3 10.9 C 0 km/h
Sensor: Nr:Datum:Temp:Abs-Feuchte:Windchill:Wind:
Aussen-T/F 101 06-06-2009 20:07:01 10.5 C 8.34 g/m*3 10.5 C 0 km/h
102 06-06-2009 20:19:00 10.4 C 8.29 g/m*3 10.4 C 0 km/h
103 06-06-2009 20:31:00 10.4 C 8.38 g/m*3 10.4 C 0 km/h
104 06-06-2009 20:43:00 10.4 C 8.38 g/m*3 10.4 C 0 km/h
105 06-06-2009 20:55:00 10.3 C 8.33 g/m*3 10.3 C 0 km/h
106 06-06-2009 21:07:00 10.3 C 8.43 g/m*3 10.3 C 0 km/h
107 06-06-2009 21:18:59 10.2 C 8.37 g/m*3 10.2 C 0 km/h
108 06-06-2009 21:31:00 10.2 C 8.37 g/m*3 10.2 C 0 km/h
109 06-06-2009 21:43:00 10.1 C 8.32 g/m*3 10.1 C 0 km/h
110 06-06-2009 21:55:59 9.8 C 8.26 g/m*3 9.8 C 0 km/h
111 06-06-2009 22:07:59 9.5 C 8.1 g/m*3 9.5 C 0 km/h
112 06-06-2009 22:19:00 9.4 C 8.14 g/m*3 9.4 C 0 km/h
113 06-06-2009 22:31:59 9.4 C 8.23 g/m*3 9.4 C 0 km/h
114 06-06-2009 22:43:59 9.5 C 8.28 g/m*3 9.5 C 0 km/h
115 06-06-2009 22:55:59 9.6 C 8.43 g/m*3 9.6 C 0 km/h
116 06-06-2009 23:07:59 9.5 C 8.37 g/m*3 9.5 C 0 km/h
117 06-06-2009 23:19:59 9.5 C 8.37 g/m*3 9.5 C 0 km/h
118 06-06-2009 23:31:58 9.2 C 8.13 g/m*3 9.2 C 0 km/h
119 06-06-2009 23:43:58 8.8 C 8.01 g/m*3 8.8 C 0 km/h
120 06-06-2009 23:55:59 8.5 C 7.85 g/m*3 8.5 C 0 km/h

Legende:
   Min
   Max


Maximal/Minimal-Werte vom 06.06.2009 - 06.06.2009

Sensor Min Max Avg
Temp
(Aussen-T/F)
7.1 °C
06-06-2009  04:43:21
11.1 °C
06-06-2009  19:31:01
9.18 °C
Abs-Feuchte
(Aussen-T/F)
5.29 g/m*3
06-06-2009  00:07:20
8.95 g/m*3
06-06-2009  18:19:14
7.39 g/m*3
Windchill
(Aussen-T/F)
7.1 C
06-06-2009  04:43:21
11.1 C
06-06-2009  19:31:01
9.11 C

Die Daten stammen von einer Davis Vantage Pro 2 Wetter-Station und werden unter Linux mit der Software wview2wettercgi und aufbereitet. Alle Angaben erfolgen ohne Gewähr für ihre Vollständigkeit oder Richtigkeit.
Kontakt: Rainer Krienke krienke@uni-koblenz.de . Meine Webseiten an der Uni Koblenz oder privat.
Version: $Revision: 0.78 $